• Join FlightAware (Why Join?)
  • Login
  • US Flag 
01:02PM EDT


 

Airport Tracker/Info


-or-


 

Live Flight TrackerFlight Track Log ✈ DAL268 ✈ 17-Aug-2013 ✈ KSFO - KJFK

Flight Track Log - Related Links

Times and Time Zones

All times are in EDT time to prevent confusion due to time zone crossing. See the DAL268 flight status page for this flight to view local times or setup timezone preferences in your user account.

Time Position Orientation Groundspeed Altitude Reporting Facility
EDT Latitude Longitude Course Direction KTS MPH feet Rate Location/Type
02:33PM 37.6110 -122.3780 90° East 105 121  Level FlightAware
02:34PM 37.6235 -122.3700 27° Northeast 174 200 1,080 Level FlightAware ADS-B
02:34PM 37.6323 -122.3640 28° Northeast 170 196 600 2,820 Climbing FlightAware ADS-B
02:34PM 37.6352 -122.3620 29° Northeast 170 196 800 3,420 Climbing FlightAware ADS-B
02:34PM 37.6376 -122.3600 33° Northeast 173 199 1,000 3,420 Climbing FlightAware ADS-B
02:34PM 37.6400 -122.3570 45° Northeast 174 200 1,200 2,400 Climbing FlightAware ADS-B
02:34PM 37.6434 -122.3530 43° Northeast 176 203 1,400 2,400 Climbing FlightAware ADS-B
02:34PM 37.6452 -122.3500 53° Northeast 175 201 1,600 2,160 Climbing FlightAware ADS-B
02:34PM 37.6538 -122.3380 48° Northeast 186 214 2,100 1,860 Climbing FlightAware ADS-B
02:35PM 37.6622 -122.3260 49° Northeast 202 232 2,500 1,620 Climbing FlightAware ADS-B
02:35PM 37.6722 -122.3120 48° Northeast 218 251 2,900 1,680 Climbing FlightAware ADS-B
02:35PM 37.6785 -122.3030 49° Northeast 228 262 3,200 1,500 Climbing FlightAware ADS-B
02:35PM 37.6858 -122.2930 47° Northeast 238 274 3,400 1,680 Climbing FlightAware ADS-B
02:35PM 37.6891 -122.2890 44° Northeast 242 278 3,600 1,620 Climbing FlightAware ADS-B
02:35PM 37.6961 -122.2830 34° Northeast 247 284 3,700 1,080 Climbing FlightAware ADS-B
02:35PM 37.6999 -122.2810 23° Northeast 251 289 3,800 1,500 Climbing FlightAware ADS-B
02:36PM 37.7087 -122.2770 20° North 258 297 4,000 2,160 Climbing FlightAware ADS-B
02:36PM 37.7123 -122.2760 12° North 258 297 4,200 3,000 Climbing FlightAware ADS-B
02:36PM 37.7188 -122.2750 North 257 296 4,400 2,640 Climbing FlightAware ADS-B
02:36PM 37.7229 -122.2760 349° North 255 293 4,600 2,760 Climbing FlightAware ADS-B
02:36PM 37.7497 -122.2780 357° North 264 304 5,600 2,760 Climbing FlightAware ADS-B
02:37PM 37.7865 -122.2800 358° North 269 310 7,000 2,640 Climbing FlightAware ADS-B
02:37PM 37.7938 -122.2790 North 274 315 7,200 1,860 Climbing FlightAware ADS-B
02:37PM 37.8064 -122.2740 17° North 280 322 7,500 2,340 Climbing FlightAware ADS-B
02:37PM 37.8430 -122.2360 39° Northeast 291 335 9,000 2,580 Climbing FlightAware ADS-B
02:38PM 37.8596 -122.2170 42° Northeast 290 334 9,800 2,220 Climbing FlightAware ADS-B
02:38PM 37.8913 -122.1820 41° Northeast 307 353 10,800 1,620 Climbing FlightAware ADS-B
02:39PM 37.9265 -122.1420 42° Northeast 337 388 11,500 1,320 Climbing FlightAware ADS-B
02:39PM 37.9637 -122.1000 42° Northeast 364 419 12,200 1,500 Climbing FlightAware ADS-B
02:40PM 38.0072 -122.0510 42° Northeast 382 440 13,100 1,860 Climbing FlightAware ADS-B
02:40PM 38.0465 -122.0070 41° Northeast 385 443 14,200 2,040 Climbing FlightAware ADS-B
02:41PM 38.0675 -121.9830 42° Northeast 391 450 14,700 1,920 Climbing FlightAware ADS-B
02:41PM 38.1120 -121.9310 43° Northeast 398 458 15,800 1,860 Climbing FlightAware ADS-B
02:42PM 38.1750 -121.8610 41° Northeast 410 472 17,200 1,800 Climbing FlightAware
02:43PM 38.2320 -121.7950 42° Northeast 421 484 18,400 1,800 Climbing FlightAware ADS-B
02:43PM 38.2780 -121.7420 42° Northeast 429 494 19,400 1,800 Climbing FlightAware
02:43PM 38.3054 -121.7120 41° Northeast 431 496 19,900 1,800 Climbing FlightAware ADS-B
02:44PM 38.3870 -121.6180 42° Northeast 440 506 21,600 1,920 Climbing FlightAware
02:44PM 38.4033 -121.5990 42° Northeast 442 509 22,000 1,920 Climbing FlightAware ADS-B
02:45PM 38.4740 -121.5030 47° Northeast 441 507 23,600 1,680 Climbing FlightAware
02:46PM 38.5250 -121.4140 54° Northeast 447 514 24,700 1,980 Climbing FlightAware
02:47PM 38.5640 -121.3470 53° Northeast 440 506 26,000 1,860 Climbing FlightAware
02:47PM 38.6100 -121.2680 53° Northeast 448 516 26,900 1,260 Climbing FlightAware
02:48PM 38.6520 -121.1940 54° Northeast 455 524 27,600 1,260 Climbing FlightAware
02:48PM 38.7030 -121.1060 53° Northeast 461 531 28,500 1,440 Climbing FlightAware
02:49PM 38.7460 -121.0320 53° Northeast 461 531 29,400 1,260 Climbing FlightAware
02:50PM 38.7950 -120.9460 54° Northeast 472 543 30,000 960 Climbing FlightAware
02:50PM 38.8400 -120.8690 53° Northeast 478 550 30,600 1,020 Climbing FlightAware
02:51PM 38.8860 -120.7900 53° Northeast 483 556 31,200 1,020 Climbing FlightAware
02:51PM 38.9320 -120.7110 53° Northeast 488 562 31,800 1,020 Climbing FlightAware
02:52PM 38.9800 -120.6280 53° Northeast 492 566 32,400 1,020 Climbing FlightAware
02:53PM 39.0320 -120.5370 54° Northeast 494 568 33,100 1,080 Climbing FlightAware
02:53PM 39.0800 -120.4540 53° Northeast 493 567 33,800 1,200 Climbing FlightAware
02:54PM 39.1260 -120.3720 54° Northeast 493 567 34,500 900 Climbing FlightAware
02:54PM 39.1730 -120.2900 54° Northeast 496 571 34,900 360 Climbing FlightAware
02:55PM 39.2260 -120.1980 53° Northeast 497 572 35,000 60 Climbing FlightAware
02:55PM 39.2580 -120.1420 54° Northeast 495 570 35,000  Level FlightAware
02:56PM 39.3060 -120.0570 54° Northeast 494 568 35,000  Level FlightAware
02:57PM 39.3540 -119.9710 54° Northeast 496 571 35,000  Level FlightAware
02:57PM 39.4030 -119.8850 54° Northeast 496 571 35,000  Level FlightAware
02:58PM 39.4470 -119.8070 54° Northeast 496 571 35,000  Level FlightAware
02:58PM 39.4950 -119.7210 54° Northeast 496 571 35,000  Level FlightAware
02:59PM 39.5370 -119.6450 54° Northeast 495 570 35,000  Level FlightAware
02:59PM 39.5860 -119.5580 54° Northeast 495 570 35,000  Level FlightAware
03:00PM 39.6310 -119.4770 54° Northeast 495 570 35,000  Level FlightAware
03:01PM 39.6800 -119.3900 54° Northeast 495 570 35,000  Level FlightAware
03:01PM 39.7280 -119.3030 54° Northeast 495 570 35,000  Level FlightAware
03:02PM 39.7750 -119.2170 55° Northeast 496 571 35,000  Level FlightAware
03:02PM 39.8240 -119.1290 54° Northeast 498 573 35,000  Level FlightAware
03:03PM 39.8720 -119.0420 54° Northeast 498 573 35,000  Level FlightAware
03:04PM 39.9120 -118.9680 55° Northeast 499 574 35,000  Level FlightAware
03:04PM 39.9640 -118.8740 54° Northeast 500 575 35,000  Level FlightAware
03:05PM 40.0060 -118.7960 55° Northeast 501 577 35,000  Level FlightAware
03:05PM 40.0550 -118.7070 54° Northeast 502 578 35,000  Level FlightAware
03:06PM 40.1030 -118.6170 55° Northeast 502 578 35,000  Level FlightAware
03:06PM 40.1400 -118.5220 63° Northeast 498 573 35,000  Level FlightAware
03:07PM 40.1690 -118.4210 69° East 498 573 35,000  Level FlightAware
03:08PM 40.2000 -118.3080 70° East 499 574 35,000  Level FlightAware
03:08PM 40.2280 -118.2040 71° East 500 575 35,000  Level FlightAware
03:09PM 40.2670 -118.0630 70° East 500 575 35,000  Level FlightAware
03:10PM 40.3100 -117.9050 70° East 501 577 35,000  Level FlightAware
03:11PM 40.3340 -117.8170 70° East 501 577 35,000  Level FlightAware
03:11PM 40.3590 -117.7270 70° East 501 577 35,000  Level FlightAware
03:12PM 40.3830 -117.6400 70° East 501 577 35,000  Level FlightAware
03:13PM 40.4070 -117.5520 70° East 501 577 35,000  Level FlightAware
03:13PM 40.4330 -117.4600 70° East 501 577 35,000  Level FlightAware
03:14PM 40.4590 -117.3650 70° East 501 577 35,000  Level FlightAware
03:14PM 40.4830 -117.2770 70° East 501 577 35,000  Level FlightAware
03:15PM 40.5080 -117.1900 69° East 501 577 35,000  Level FlightAware
03:16PM 40.5320 -117.1020 70° East 501 577 35,000  Level FlightAware
03:16PM 40.5560 -117.0140 70° East 501 577 35,000  Level FlightAware
03:17PM 40.5800 -116.9270 70° East 501 577 35,000  Level FlightAware
03:17PM 40.6030 -116.8440 70° East 501 577 35,000  Level FlightAware
03:18PM 40.6270 -116.7560 70° East 501 577 35,000  Level FlightAware
03:19PM 40.6520 -116.6680 69° East 501 577 35,000  Level FlightAware
03:19PM 40.6770 -116.5780 70° East 501 577 35,000  Level FlightAware
03:21PM 40.8023 -116.0570 72° East 497 572 35,000  Level FlightAware ADS-B
03:21PM 40.8262 -115.9660 71° East 497 572 35,000  Level FlightAware ADS-B
03:22PM 40.8488 -115.8800 71° East 497 572 35,000  Level FlightAware ADS-B
03:22PM 40.8719 -115.7920 71° East 496 571 35,000  Level FlightAware ADS-B
03:23PM 40.9059 -115.6620 71° East 497 572 35,000  Level FlightAware ADS-B
03:24PM 40.9493 -115.4950 71° East 496 571 35,000  Level FlightAware ADS-B
03:26PM 41.0263 -115.1960 71° East 496 571 35,000  Level FlightAware ADS-B
03:26PM 41.0492 -115.1060 71° East 496 571 35,000  Level FlightAware ADS-B
03:27PM 41.0726 -115.0140 71° East 496 571 35,000  Level FlightAware ADS-B
03:28PM 41.0964 -114.9200 71° East 496 571 35,000  Level FlightAware ADS-B
03:28PM 41.1217 -114.8190 72° East 496 571 35,000  Level FlightAware ADS-B
03:29PM 41.1464 -114.7210 71° East 497 572 35,000  Level FlightAware ADS-B
03:29PM 41.1734 -114.6130 72° East 496 571 35,000  Level FlightAware ADS-B
03:30PM 41.1951 -114.5260 72° East 496 571 35,000 60 Level FlightAware ADS-B
03:30PM 41.2181 -114.4330 72° East 494 568 35,100 240 Climbing FlightAware ADS-B
03:31PM 41.2395 -114.3470 72° East 491 565 35,300 420 Climbing FlightAware ADS-B
03:31PM 41.2656 -114.2410 72° East 490 564 35,600 240 Climbing FlightAware ADS-B
03:32PM 41.2840 -114.1690 71° East 491 565 35,600 480 Level FlightAware
03:33PM 41.3138 -114.0430 72° East 491 565 36,200 660 Climbing FlightAware ADS-B
03:33PM 41.3350 -113.9560 72° East 488 562 36,400 420 Climbing FlightAware ADS-B
03:33PM 41.3487 -113.8990 72° East 489 563 36,600 540 Climbing FlightAware ADS-B
03:34PM 41.3600 -113.8370 76° East 489 563 36,800 480 Climbing FlightAware ADS-B
03:34PM 41.3659 -113.7900 80° East 488 562 36,900 240 Climbing FlightAware ADS-B
03:35PM 41.3731 -113.6920 84° East 489 563 37,000 60 Climbing FlightAware ADS-B
03:35PM 41.3792 -113.6020 85° East 488 562 37,000  Level FlightAware ADS-B
03:36PM 41.3850 -113.5130 85° East 486 559 37,000  Level FlightAware ADS-B
03:36PM 41.3908 -113.4230 85° East 486 559 37,000  Level FlightAware ADS-B
03:37PM 41.3964 -113.3340 85° East 486 559 37,000  Level FlightAware ADS-B
03:37PM 41.4031 -113.2290 85° East 485 558 37,000  Level FlightAware ADS-B
03:38PM 41.4087 -113.1380 85° East 485 558 37,000  Level FlightAware ADS-B
03:38PM 41.4148 -113.0400 85° East 484 557 37,000  Level FlightAware ADS-B
03:39PM 41.4203 -112.9490 85° East 484 557 37,000  Level FlightAware ADS-B
03:39PM 41.4260 -112.8590 85° East 482 555 37,000  Level FlightAware
03:40PM 41.4320 -112.7550 86° East 483 556 37,000  Level FlightAware ADS-B
03:40PM 41.4381 -112.6500 86° East 483 556 37,000  Level FlightAware ADS-B
03:41PM 41.4449 -112.5310 86° East 483 556 37,000  Level FlightAware ADS-B
03:42PM 41.4499 -112.4410 86° East 484 557 37,000  Level FlightAware ADS-B
03:42PM 41.4576 -112.3030 86° East 484 557 37,000  Level FlightAware ADS-B
03:43PM 41.4624 -112.2130 86° East 484 557 37,000  Level FlightAware ADS-B
03:43PM 41.4678 -112.1120 86° East 484 557 37,000  Level FlightAware ADS-B
03:44PM 41.4727 -112.0180 86° East 484 557 37,000  Level FlightAware ADS-B
03:45PM 41.4774 -111.9290 86° East 485 558 37,000  Level FlightAware ADS-B
03:45PM 41.4825 -111.8280 86° East 485 558 37,000  Level FlightAware ADS-B
03:46PM 41.4872 -111.7360 86° East 486 559 37,000  Level FlightAware ADS-B
03:46PM 41.4917 -111.6460 86° East 485 558 37,000  Level FlightAware ADS-B
03:47PM 41.4961 -111.5550 86° East 486 559 37,000  Level FlightAware ADS-B
03:47PM 41.5004 -111.4640 86° East 486 559 37,000  Level FlightAware ADS-B
03:48PM 41.5052 -111.3610 86° East 484 557 37,000  Level FlightAware ADS-B
03:48PM 41.5094 -111.2710 86° East 482 555 37,000  Level FlightAware ADS-B
03:49PM 41.5134 -111.1820 87° East 481 554 37,000  Level FlightAware ADS-B
03:49PM 41.5176 -111.0880 87° East 479 551 37,000  Level FlightAware ADS-B
03:50PM 41.5217 -110.9940 87° East 481 554 37,000  Level FlightAware ADS-B
03:50PM 41.5256 -110.9040 87° East 482 555 37,000  Level FlightAware ADS-B
03:51PM 41.5293 -110.8140 87° East 482 555 37,000  Level FlightAware ADS-B
03:52PM 41.5350 -110.6660 87° East 480 552 37,000  Level FlightAware
03:52PM 41.5400 -110.5600 86° East 481 554 37,000  Level FlightAware
03:53PM 41.5430 -110.4660 88° East 480 552 37,000  Level FlightAware
03:53PM 41.5480 -110.3540 87° East 479 551 37,000  Level FlightAware
03:54PM 41.5520 -110.2430 87° East 479 551 37,000  Level FlightAware
03:55PM 41.5550 -110.1530 87° East 479 551 37,000  Level FlightAware
03:55PM 41.5590 -110.0620 87° East 479 551 37,000  Level FlightAware
03:56PM 41.5640 -109.9420 87° East 479 551 37,000  Level FlightAware
03:57PM 41.5670 -109.8510 87° East 479 551 37,000  Level FlightAware
03:57PM 41.5710 -109.7610 87° East 479 551 37,000  Level FlightAware
03:58PM 41.5740 -109.6700 87° East 479 551 37,000  Level FlightAware
03:58PM 41.5780 -109.5770 87° East 479 551 37,000  Level FlightAware
03:59PM 41.5820 -109.4840 87° East 479 551 37,000  Level FlightAware
04:00PM 41.5850 -109.3930 87° East 479 551 37,000  Level FlightAware
04:00PM 41.5890 -109.3030 87° East 479 551 37,000  Level FlightAware
04:01PM 41.5920 -109.2120 87° East 479 551 37,000  Level FlightAware
04:02PM 41.5960 -109.1190 87° East 479 551 37,000  Level FlightAware
04:02PM 41.5990 -109.0290 87° East 479 551 37,000  Level FlightAware
04:03PM 41.6030 -108.9380 87° East 479 551 37,000  Level FlightAware
04:03PM 41.6060 -108.8480 87° East 479 551 37,000  Level FlightAware
04:04PM 41.6486 -108.5222 87° East 477 549 37,000  Level Salt Lake Center
04:05PM 41.6686 -108.3531 81° East 479 551 37,000  Level Salt Lake Center
04:06PM 41.6906 -108.1578 81° East 476 548 37,000  Level Salt Lake Center
04:07PM 41.7125 -107.9869 80° East 488 562 37,000  Level Salt Lake Center
04:08PM 41.7306 -107.8131 82° East 493 567 37,000  Level Salt Lake Center
04:09PM 41.7525 -107.6100 82° East 495 570 37,000  Level Salt Lake Center
04:10PM 41.7644 -107.4631 84° East 494 568 37,000  Level Denver Center
04:15PM 41.8210 -106.4690 84° East 472 543 37,000  Level FlightAware
04:16PM 41.8270 -106.3590 86° East 473 544 37,000  Level FlightAware
04:16PM 41.8320 -106.2620 86° East 474 545 37,000  Level FlightAware
04:17PM 41.8380 -106.1550 86° East 475 547 37,000  Level FlightAware
04:18PM 41.8420 -106.0740 86° East 475 547 37,000  Level FlightAware
04:18PM 41.8520 -105.9530 84° East 473 544 37,000  Level FlightAware
04:19PM 41.8640 -105.8470 81° East 472 543 37,000  Level FlightAware
04:19PM 41.8750 -105.7540 81° East 471 542 37,000  Level FlightAware
04:20PM 41.8860 -105.6580 81° East 469 540 37,000  Level FlightAware
04:21PM 41.8970 -105.5600 81° East 470 541 37,000  Level FlightAware
04:21PM 41.9090 -105.4620 81° East 470 541 37,000  Level FlightAware
04:22PM 41.9220 -105.3430 82° East 477 549 37,000  Level FlightAware
04:22PM 41.9350 -105.2230 82° East 478 550 37,000  Level FlightAware
04:23PM 41.9471 -105.1160 81° East 478 550 37,000  Level FlightAware ADS-B
04:24PM 41.9569 -105.0270 82° East 477 549 37,000  Level FlightAware ADS-B
04:24PM 41.9665 -104.9380 82° East 477 549 37,000  Level FlightAware ADS-B
04:25PM 41.9761 -104.8500 82° East 477 549 37,000  Level FlightAware ADS-B
04:25PM 41.9856 -104.7620 82° East 476 548 37,000  Level FlightAware ADS-B
04:26PM 41.9952 -104.6710 82° East 477 549 37,000  Level FlightAware ADS-B
04:26PM 42.0049 -104.5800 82° East 476 548 37,000  Level FlightAware ADS-B
04:27PM 42.0142 -104.4920 82° East 476 548 37,000  Level FlightAware ADS-B
04:27PM 42.0234 -104.4030 82° East 475 547 37,000  Level FlightAware ADS-B
04:28PM 42.0325 -104.3150 82° East 473 544 37,000  Level FlightAware ADS-B
04:28PM 42.0414 -104.2280 82° East 472 543 37,000  Level FlightAware ADS-B
04:29PM 42.0512 -104.1320 82° East 472 543 37,000  Level FlightAware ADS-B
04:29PM 42.0603 -104.0420 82° East 471 542 37,000  Level FlightAware ADS-B
04:30PM 42.0691 -103.9550 82° East 469 540 37,000  Level FlightAware ADS-B
04:30PM 42.0777 -103.8680 82° East 466 536 37,000  Level FlightAware ADS-B
04:31PM 42.0862 -103.7820 82° East 464 534 37,000  Level FlightAware ADS-B
04:31PM 42.0947 -103.6950 82° East 466 536 37,000  Level FlightAware ADS-B
04:32PM 42.1032 -103.6070 83° East 467 537 37,000  Level FlightAware ADS-B
04:32PM 42.1115 -103.5200 83° East 468 539 37,000  Level FlightAware ADS-B
04:33PM 42.1200 -103.4320 83° East 469 540 37,000  Level FlightAware ADS-B
04:33PM 42.1282 -103.3450 83° East 470 541 37,000  Level FlightAware ADS-B
04:34PM 42.1364 -103.2580 83° East 471 542 37,000  Level FlightAware ADS-B
04:34PM 42.1445 -103.1700 83° East 471 542 37,000  Level FlightAware ADS-B
04:35PM 42.1527 -103.0820 83° East 471 542 37,000  Level FlightAware ADS-B
04:35PM 42.1607 -102.9940 83° East 470 541 37,000  Level FlightAware ADS-B
04:36PM 42.1687 -102.9060 83° East 470 541 37,000  Level FlightAware ADS-B
04:36PM 42.1771 -102.8130 83° East 470 541 37,000  Level FlightAware ADS-B
04:37PM 42.1851 -102.7240 83° East 469 540 37,000  Level FlightAware ADS-B
04:37PM 42.1930 -102.6340 83° East 468 539 37,000  Level FlightAware ADS-B
04:38PM 42.2006 -102.5460 83° East 467 537 37,000  Level FlightAware ADS-B
04:38PM 42.2082 -102.4580 83° East 467 537 37,000  Level FlightAware ADS-B
04:39PM 42.2159 -102.3690 83° East 466 536 37,000  Level FlightAware ADS-B
04:39PM 42.2236 -102.2790 83° East 465 535 37,000  Level FlightAware ADS-B
04:40PM 42.2345 -102.1500 83° East 465 535 37,000  Level FlightAware ADS-B
04:41PM 42.2406 -102.0578 83° East 463 533 37,000  Level Minneapolis Center
04:42PM 42.2589 -101.8478 83° East 465 535 37,000  Level Minneapolis Center
04:43PM 42.2750 -101.6706 83° East 470 541 37,000  Level Minneapolis Center
04:44PM 42.2897 -101.4950 83° East 472 543 37,000  Level Minneapolis Center
04:45PM 42.3036 -101.3197 84° East 471 542 37,000  Level Minneapolis Center
04:46PM 42.3161 -101.1447 84° East 469 540 37,000  Level Minneapolis Center
04:47PM 42.3286 -100.9700 84° East 469 540 37,000  Level Minneapolis Center
04:48PM 42.3392 -100.7978 85° East 465 535 37,000  Level Minneapolis Center
04:49PM 42.3536 -100.5903 85° East 463 533 37,000  Level Minneapolis Center
04:50PM 42.3656 -100.4172 85° East 462 532 37,000  Level Minneapolis Center
04:51PM 42.3761 -100.2475 85° East 456 525 37,000  Level Minneapolis Center
04:52PM 42.3883 -100.0783 84° East 452 520 37,000  Level Minneapolis Center
04:53PM 42.3986 -99.9089 85° East 452 520 37,000  Level Minneapolis Center
04:54PM 42.4103 -99.7417 85° East 449 517 37,000  Level Minneapolis Center
04:55PM 42.4197 -99.5728 86° East 448 516 37,000  Level Minneapolis Center
04:56PM 42.4325 -99.3681 85° East 454 522 37,000  Level Minneapolis Center
04:57PM 42.4419 -99.1983 86° East 453 521 37,000  Level Minneapolis Center
04:58PM 42.4519 -99.0278 85° East 453 521 37,000  Level Minneapolis Center
04:59PM 42.4622 -98.8572 85° East 454 522 37,000  Level Minneapolis Center
05:01PM 42.4714 -98.6864 86° East 454 522 37,000  Level Minneapolis Center
05:02PM 42.4800 -98.5144 86° East 455 524 37,000  Level Minneapolis Center
05:07PM 42.5230 -97.5430 86° East 37,000  Level FlightAware
05:08PM 42.5280 -97.4390 86° East 449 517 37,000  Level FlightAware
05:08PM 42.5320 -97.3290 87° East 447 514 37,000  Level FlightAware
05:09PM 42.5350 -97.2530 87° East 446 513 37,000  Level FlightAware
05:10PM 42.5390 -97.1370 87° East 445 512 37,000  Level FlightAware
05:10PM 42.5440 -97.0270 86° East 443 510 37,000  Level FlightAware
05:11PM 42.5470 -96.9300 88° East 442 509 37,000  Level FlightAware
05:11PM 42.5500 -96.8350 88° East 441 507 37,000  Level FlightAware
05:12PM 42.5540 -96.7420 87° East 440 506 37,000  Level FlightAware
05:12PM 42.5570 -96.6500 87° East 440 506 37,000  Level FlightAware
05:13PM 42.5600 -96.5490 88° East 440 506 37,000  Level FlightAware
05:14PM 42.5630 -96.4620 87° East 440 506 37,000  Level FlightAware
05:14PM 42.5660 -96.3550 88° East 440 506 37,000  Level FlightAware
05:15PM 42.5690 -96.2600 88° East 441 507 37,000  Level FlightAware
05:15PM 42.5720 -96.1770 87° East 441 507 37,000  Level FlightAware
05:16PM 42.5750 -96.0590 88° East 441 507 37,000  Level FlightAware
05:17PM 42.5780 -95.9680 87° East 441 507 37,000  Level FlightAware
05:17PM 42.5800 -95.8840 88° East 441 507 37,000  Level FlightAware
05:18PM 42.5830 -95.7740 88° East 441 507 37,000  Level FlightAware
05:18PM 42.5850 -95.6850 88° East 441 507 37,000  Level FlightAware
05:19PM 42.5870 -95.5820 88° East 441 507 37,000  Level FlightAware
05:19PM 42.5900 -95.4940 87° East 441 507 37,000  Level FlightAware
05:20PM 42.5930 -95.3480 88° East 441 507 37,000  Level FlightAware
05:21PM 42.5950 -95.2500 88° East 441 507 37,000  Level FlightAware
05:21PM 42.5970 -95.1600 88° East 440 506 37,000  Level FlightAware
05:22PM 42.5990 -95.0610 88° East 443 510 37,000  Level FlightAware
05:23PM 42.6010 -94.9590 88° East 448 516 37,000  Level FlightAware
05:23PM 42.6020 -94.8710 89° East 450 518 37,000  Level FlightAware
05:24PM 42.6040 -94.7670 88° East 450 518 37,000  Level FlightAware
05:24PM 42.6060 -94.6680 88° East 448 516 37,000  Level FlightAware
05:25PM 42.6070 -94.5790 89° East 441 507 37,000  Level FlightAware
05:26PM 42.6090 -94.4790 88° East 438 504 37,000  Level FlightAware
05:26PM 42.6100 -94.3800 89° East 436 502 37,000  Level FlightAware
05:27PM 42.6110 -94.2960 89° East 434 499 37,000  Level FlightAware
05:27PM 42.6120 -94.2000 89° East 432 497 37,000  Level FlightAware
05:28PM 42.6130 -94.1020 89° East 430 495 37,000  Level FlightAware
05:28PM 42.6140 -93.9990 89° East 428 493 37,000  Level FlightAware
05:29PM 42.6140 -93.9020 90° East 426 490 37,000  Level FlightAware
05:30PM 42.6150 -93.8160 89° East 425 489 37,000  Level FlightAware
05:30PM 42.6150 -93.7230 90° East 424 488 37,000  Level FlightAware
05:31PM 42.6160 -93.6360 89° East 423 487 37,000  Level FlightAware
05:31PM 42.6160 -93.5310 90° East 424 488 37,000  Level FlightAware
05:32PM 42.6160 -93.4460 90° East 424 488 37,000  Level FlightAware
05:33PM 42.6170 -93.3580 89° East 425 489 37,000  Level FlightAware
05:33PM 42.6170 -93.2550 90° East 426 490 37,000  Level FlightAware
05:34PM 42.6170 -93.1590 90° East 426 490 37,000  Level FlightAware
05:34PM 42.6170 -93.0730 90° East 427 491 37,000  Level FlightAware
05:35PM 42.6170 -92.9760 90° East 428 493 37,000  Level FlightAware
05:35PM 42.6160 -92.8790 91° East 429 494 37,000  Level FlightAware
05:36PM 42.6160 -92.7960 90° East 429 494 37,000  Level FlightAware
05:37PM 42.6160 -92.6880 90° East 429 494 37,000  Level FlightAware
05:37PM 42.6150 -92.6010 91° East 429 494 37,000  Level FlightAware
05:38PM 42.6150 -92.5080 90° East 429 494 37,000  Level FlightAware
05:38PM 42.6140 -92.4150 91° East 429 494 37,000  Level FlightAware
05:39PM 42.6140 -92.3190 90° East 430 495 37,000  Level FlightAware
05:40PM 42.6130 -92.2260 91° East 429 494 37,000  Level FlightAware
05:40PM 42.6120 -92.1330 91° East 429 494 37,000  Level FlightAware
05:41PM 42.6110 -92.0370 91° East 428 493 37,000  Level FlightAware
05:41PM 42.6100 -91.9360 91° East 427 491 37,000  Level FlightAware
05:42PM 42.6090 -91.8560 91° East 427 491 37,000  Level FlightAware
05:42PM 42.6080 -91.7560 91° East 427 491 37,000  Level FlightAware
05:43PM 42.6070 -91.6600 91° East 428 493 37,000  Level FlightAware
05:44PM 42.6060 -91.5660 91° East 429 494 37,000  Level FlightAware
05:44PM 42.6040 -91.4780 92° East 429 494 37,000  Level FlightAware
05:45PM 42.6030 -91.3800 91° East 430 495 37,000  Level FlightAware
05:45PM 42.6010 -91.2790 92° East 431 496 37,000  Level FlightAware
05:46PM 42.6000 -91.2040 91° East 432 497 37,000  Level FlightAware
05:47PM 42.5980 -91.0940 91° East 433 498 37,000  Level FlightAware
05:47PM 42.5960 -91.0020 92° East 433 498 37,000  Level FlightAware
05:48PM 42.5940 -90.9050 92° East 434 499 37,000  Level FlightAware
05:48PM 42.5920 -90.8110 92° East 434 499 37,000  Level FlightAware
05:49PM 42.5900 -90.7140 92° East 434 499 37,000  Level FlightAware
05:50PM 42.5880 -90.6150 92° East 433 498 37,000  Level FlightAware
05:50PM 42.5860 -90.5220 92° East 433 498 37,000  Level FlightAware
05:51PM 42.5840 -90.4250 92° East 433 498 37,000  Level FlightAware
05:51PM 42.5820 -90.3370 92° East 434 499 37,000  Level FlightAware
05:52PM 42.5790 -90.2390 92° East 433 498 37,000  Level FlightAware
05:52PM 42.5770 -90.1430 92° East 432 497 37,000  Level FlightAware
05:53PM 42.5740 -90.0440 92° East 432 497 37,000  Level FlightAware
05:54PM 42.5720 -89.9590 92° East 432 497 37,000  Level FlightAware
05:54PM 42.5690 -89.8620 92° East 432 497 37,000  Level FlightAware
05:55PM 42.5660 -89.7650 92° East 431 496 37,000  Level FlightAware
05:55PM 42.5630 -89.6670 92° East 430 495 37,000  Level FlightAware
05:56PM 42.5600 -89.5800 93° East 430 495 37,000  Level FlightAware
05:57PM 42.5570 -89.4790 92° East 429 494 37,000  Level FlightAware
05:57PM 42.5540 -89.3940 93° East 428 493 37,000  Level FlightAware
05:58PM 42.5510 -89.2950 92° East 427 491 37,000  Level FlightAware
05:58PM 42.5480 -89.2020 92° East 427 491 37,000  Level FlightAware
05:59PM 42.5450 -89.1160 93° East 426 490 37,000  Level FlightAware
05:59PM 42.5420 -89.0200 92° East 425 489 37,000  Level FlightAware
06:00PM 42.5390 -88.9450 93° East 424 488 37,000  Level FlightAware
06:00PM 42.5350 -88.8490 93° East 424 488 37,000  Level FlightAware
06:01PM 42.5320 -88.7550 92° East 423 487 37,000  Level FlightAware
06:02PM 42.5280 -88.6590 93° East 423 487 37,000  Level FlightAware
06:02PM 42.5240 -88.5740 94° East 422 486 37,000  Level FlightAware
06:03PM 42.5210 -88.4800 92° East 421 484 37,000  Level FlightAware
06:03PM 42.5170 -88.3850 93° East 420 483 37,000  Level FlightAware
06:04PM 42.5130 -88.3020 94° East 419 482 37,000  Level FlightAware
06:05PM 42.5090 -88.2140 93° East 419 482 37,000  Level FlightAware
06:05PM 42.5050 -88.1150 93° East 419 482 37,000  Level FlightAware
06:06PM 42.5010 -88.0140 93° East 418 481 37,000  Level FlightAware
06:06PM 42.5000 -87.9350 91° East 418 481 37,000  Level FlightAware
06:07PM 42.5000 -87.8530 90° East 419 482 37,000  Level FlightAware
06:07PM 42.5000 -87.7570 90° East 418 481 37,000  Level FlightAware
06:08PM 42.5000 -87.6600 90° East 419 482 37,000  Level FlightAware
06:09PM 42.4990 -87.5680 91° East 420 483 37,000  Level FlightAware
06:09PM 42.4990 -87.4790 90° East 421 484 37,000  Level FlightAware
06:10PM 42.4990 -87.3870 90° East 421 484 37,000  Level FlightAware
06:10PM 42.4980 -87.2990 91° East 421 484 37,000  Level FlightAware
06:11PM 42.4970 -87.1930 91° East 422 486 37,000  Level FlightAware
06:12PM 42.4970 -87.1020 90° East 423 487 37,000  Level FlightAware
06:12PM 42.4960 -87.0080 91° East 426 490 37,000  Level FlightAware
06:13PM 42.4950 -86.9110 91° East 428 493 37,000  Level FlightAware
06:13PM 42.4940 -86.8290 91° East 430 495 37,000  Level FlightAware
06:14PM 42.4930 -86.7340 91° East 432 497 37,000  Level FlightAware
06:14PM 42.4920 -86.6460 91° East 434 499 37,000  Level FlightAware
06:15PM 42.4910 -86.5510 91° East 437 503 37,000  Level FlightAware
06:16PM 42.4900 -86.4590 91° East 439 505 37,000  Level FlightAware
06:16PM 42.4890 -86.3530 91° East 441 507 37,000  Level FlightAware
06:17PM 42.4870 -86.2440 91° East 441 507 37,000  Level FlightAware
06:17PM 42.4860 -86.1620 91° East 442 509 37,000  Level FlightAware
06:18PM 42.4840 -86.0590 91° East 443 510 37,000  Level FlightAware
06:19PM 42.4830 -85.9650 91° East 443 510 37,000  Level FlightAware
06:19PM 42.4810 -85.8610 91° East 444 511 37,000  Level FlightAware
06:20PM 42.4790 -85.7680 92° East 444 511 37,000  Level FlightAware
06:20PM 42.4770 -85.6660 91° East 445 512 37,000  Level FlightAware
06:21PM 42.4750 -85.5730 92° East 446 513 37,000  Level FlightAware
06:21PM 42.4730 -85.4770 92° East 447 514 37,000  Level FlightAware
06:22PM 42.4710 -85.3750 91° East 447 514 37,000 60 Level FlightAware
06:23PM 42.4690 -85.2850 92° East 445 512 37,100 300 Climbing FlightAware
06:23PM 42.4660 -85.1810 92° East 446 513 37,400 480 Climbing FlightAware
06:24PM 42.4640 -85.0810 92° East 449 517 37,700 480 Climbing FlightAware
06:24PM 42.4610 -84.9810 92° East 450 518 38,000 480 Climbing FlightAware
06:25PM 42.4580 -84.8810 92° East 452 520 38,300 420 Climbing FlightAware
06:26PM 42.4560 -84.7990 92° East 453 521 38,500 420 Climbing FlightAware
06:26PM 42.4530 -84.6960 92° East 457 526 38,800 360 Climbing FlightAware
06:27PM 42.4500 -84.5910 92° East 465 535 39,000 120 Climbing FlightAware
06:27PM 42.4470 -84.4810 92° East 469 540 39,000  Level FlightAware
06:28PM 42.4430 -84.3610 93° East 471 542 39,000  Level FlightAware
06:29PM 42.4400 -84.2550 92° East 473 544 39,000  Level FlightAware
06:29PM 42.4350 -84.1430 93° East 473 544 39,000  Level FlightAware
06:30PM 42.4270 -84.0360 96° East 474 545 39,000  Level FlightAware
06:31PM 42.4190 -83.9070 95° East 474 545 39,000  Level FlightAware
06:31PM 42.4120 -83.8010 95° East 475 547 39,000  Level FlightAware
06:32PM 42.4050 -83.7040 96° East 475 547 39,000  Level FlightAware
06:32PM 42.3980 -83.5930 95° East 474 545 39,000  Level FlightAware
06:33PM 42.3910 -83.4870 95° East 473 544 39,000  Level FlightAware
06:34PM 42.3840 -83.3810 95° East 474 545 39,000  Level FlightAware
06:34PM 42.3770 -83.2890 96° East 475 547 39,000  Level FlightAware
06:35PM 42.3700 -83.1800 95° East 476 548 39,000  Level FlightAware
06:35PM 42.3630 -83.0870 96° East 478 550 39,000  Level FlightAware
06:36PM 42.3560 -82.9830 95° East 480 552 39,000  Level FlightAware
06:36PM 42.3490 -82.8880 96° East 483 556 39,000  Level FlightAware
06:37PM 42.3400 -82.7680 96° East 486 559 39,000  Level FlightAware
06:38PM 42.3320 -82.6620 96° East 489 563 39,000  Level FlightAware
06:38PM 42.3240 -82.5580 96° East 492 566 39,000  Level FlightAware
06:39PM 42.3150 -82.4410 96° East 495 570 39,000  Level FlightAware
06:39PM 42.3060 -82.3310 96° East 498 573 39,000  Level FlightAware
06:40PM 42.3000 -82.2450 95° East 500 575 39,000  Level FlightAware
06:40PM 42.2900 -82.1250 96° East 504 580 39,000  Level FlightAware
06:41PM 42.2810 -82.0120 96° East 507 583 39,000  Level FlightAware
06:42PM 42.2720 -81.9060 97° East 509 586 39,000  Level FlightAware
06:42PM 42.2630 -81.7920 96° East 513 590 39,000  Level FlightAware
06:43PM 42.2530 -81.6710 96° East 516 594 39,000  Level FlightAware
06:44PM 42.2420 -81.5390 96° East 518 596 39,000  Level FlightAware
06:44PM 42.2310 -81.4160 97° East 521 600 39,000  Level FlightAware
06:45PM 42.2200 -81.2920 97° East 524 603 39,000  Level FlightAware
06:45PM 42.2130 -81.2070 96° East 525 604 39,000  Level FlightAware
06:46PM 42.2000 -81.0660 97° East 526 605 39,000  Level FlightAware
06:47PM 42.1910 -80.9670 97° East 527 606 39,000  Level FlightAware
06:47PM 42.1810 -80.8510 97° East 528 608 39,000  Level FlightAware
06:48PM 42.1680 -80.7250 98° East 528 608 39,000  Level FlightAware
06:49PM 42.1510 -80.5900 100° East 529 609 39,000  Level FlightAware
06:49PM 42.1330 -80.4470 100° East 537 618 39,000  Level FlightAware
06:50PM 42.1190 -80.3350 100° East 542 624 39,000  Level FlightAware
06:50PM 42.1040 -80.2170 100° East 548 631 39,000  Level FlightAware
06:51PM 42.0870 -80.0810 100° East 551 634 39,000  Level FlightAware
06:52PM 42.0720 -79.9630 100° East 552 635 39,000  Level FlightAware
06:52PM 42.0600 -79.8620 99° East 552 635 39,000  Level FlightAware
06:53PM 42.0440 -79.7430 100° East 553 636 39,000  Level FlightAware
06:53PM 42.0270 -79.6090 100° East 553 636 39,000  Level FlightAware
06:54PM 42.0120 -79.4940 100° East 552 635 39,000  Level FlightAware
06:54PM 41.9980 -79.3890 100° East 551 634 39,000  Level FlightAware
06:55PM 41.9810 -79.2560 100° East 549 632 39,000  Level FlightAware
06:56PM 41.9670 -79.1570 101° East 548 631 39,000  Level FlightAware
06:56PM 41.9490 -79.0220 100° East 548 631 39,000  Level FlightAware
06:57PM 41.9360 -78.9230 100° East 548 631 39,000  Level FlightAware
06:57PM 41.9200 -78.8090 101° East 548 631 39,000  Level FlightAware
06:58PM 41.9010 -78.6760 101° East 546 628 39,000  Level FlightAware
06:59PM 41.8850 -78.5550 100° East 541 623 39,000  Level FlightAware
06:59PM 41.8660 -78.4240 101° East 534 615 39,000  Level FlightAware
07:00PM 41.8510 -78.3130 100° East 532 612 39,000  Level FlightAware
07:00PM 41.8340 -78.1990 101° East 532 612 39,000  Level FlightAware
07:01PM 41.8140 -78.0590 101° East 531 611 39,000  Level FlightAware
07:02PM 41.8000 -77.9600 101° East 531 611 39,000  Level FlightAware
07:02PM 41.7840 -77.8490 101° East 530 610 39,000  Level FlightAware
07:03PM 41.7660 -77.7280 101° East 532 612 39,000  Level FlightAware
07:04PM 41.7470 -77.6020 101° East 531 611 39,000  Level FlightAware
07:04PM 41.7330 -77.5120 102° East 531 611 39,000  Level FlightAware
07:05PM 41.7130 -77.3770 101° East 532 612 39,000  Level FlightAware
07:05PM 41.6960 -77.2650 101° East 532 612 39,000  Level FlightAware
07:06PM 41.6800 -77.1680 102° East 528 608 39,000 -480 Level FlightAware
07:06PM 41.6520 -77.0510 108° East 522 601 38,500 -1,020 Descending FlightAware
07:07PM 41.6299 -76.9698 110° East 523 602 38,000 -1,380 Descending FlightAware ADS-B
07:07PM 41.6003 -76.8615 110° East 525 604 37,200 -1,200 Descending FlightAware ADS-B
07:08PM 41.5747 -76.7687 110° East 523 602 36,700 -900 Descending FlightAware ADS-B
07:08PM 41.5490 -76.6748 110° East 512 589 36,300 -600 Descending FlightAware ADS-B
07:09PM 41.5240 -76.5842 110° East 506 582 36,100 -300 Descending FlightAware ADS-B
07:09PM 41.4994 -76.4951 110° East 513 590 36,000 -240 Descending FlightAware ADS-B
07:10PM 41.4738 -76.4030 110° East 519 597 35,900 -1,440 Descending FlightAware ADS-B
07:11PM 41.4465 -76.3052 110° East 530 610 34,500 -2,100 Descending FlightAware ADS-B
07:11PM 41.4204 -76.2112 110° East 519 597 33,700 -1,860 Descending FlightAware ADS-B
07:12PM 41.3953 -76.1211 110° East 515 593 32,600 -2,640 Descending FlightAware ADS-B
07:12PM 41.3692 -76.0283 111° Southeast 522 601 31,000 -3,360 Descending FlightAware ADS-B
07:13PM 41.3436 -75.9376 111° Southeast 527 606 29,200 -2,700 Descending FlightAware ADS-B
07:13PM 41.3180 -75.8471 111° Southeast 512 589 28,300 -1,860 Descending FlightAware ADS-B
07:14PM 41.2918 -75.7552 111° Southeast 493 567 27,300 -1,800 Descending FlightAware ADS-B
07:14PM 41.2653 -75.6676 112° Southeast 477 549 26,400 -1,740 Descending FlightAware ADS-B
07:15PM 41.2386 -75.5858 113° Southeast 462 532 25,500 -1,800 Descending FlightAware ADS-B
07:15PM 41.2127 -75.5086 114° Southeast 450 518 24,600 -1,800 Descending FlightAware ADS-B
07:16PM 41.1864 -75.4304 114° Southeast 443 510 23,700 -1,560 Descending FlightAware ADS-B
07:16PM 41.1609 -75.3550 114° Southeast 443 510 23,000 -720 Descending FlightAware ADS-B
07:17PM 41.1355 -75.2795 114° Southeast 437 503 23,000  Level FlightAware ADS-B
07:17PM 41.1079 -75.1979 114° Southeast 438 504 23,000  Level FlightAware ADS-B
07:18PM 41.0822 -75.1221 114° Southeast 443 510 23,000  Level FlightAware ADS-B
07:18PM 41.0569 -75.0475 114° Southeast 440 506 23,000  Level FlightAware ADS-B
07:19PM 41.0306 -74.9703 114° Southeast 452 520 23,000 -420 Level FlightAware ADS-B
07:19PM 41.0078 -74.9027 114° Southeast 470 541 22,600 -1,320 Descending FlightAware ADS-B
07:19PM 40.9960 -74.8621 111° Southeast 473 544 22,100 -2,040 Descending FlightAware ADS-B
07:20PM 40.9769 -74.7797 107° East 462 532 21,100 -2,220 Descending FlightAware ADS-B
07:20PM 40.9642 -74.7189 105° East 465 535 20,200 -2,400 Descending FlightAware ADS-B
07:20PM 40.9601 -74.6988 105° East 453 521 19,900 -1,980 Descending FlightAware ADS-B
07:21PM 40.9475 -74.6373 105° East 448 516 19,200 -1,560 Descending FlightAware ADS-B
07:21PM 40.9433 -74.6176 106° East 448 516 19,100 -420 Descending FlightAware ADS-B
07:21PM 40.9310 -74.5583 105° East 447 514 19,000 -240 Descending FlightAware ADS-B
07:21PM 40.9265 -74.5365 105° East 447 514 19,000  Level FlightAware ADS-B
07:22PM 40.9141 -74.4767 105° East 448 516 19,000  Level FlightAware ADS-B
07:22PM 40.9100 -74.4572 106° East 449 517 19,000  Level FlightAware ADS-B
07:22PM 40.8971 -74.3957 105° East 449 517 19,000  Level FlightAware ADS-B
07:23PM 40.8919 -74.3712 106° East 449 517 19,000  Level FlightAware ADS-B
07:23PM 40.8749 -74.2917 106° East 450 518 19,000  Level FlightAware ADS-B
07:23PM 40.8639 -74.2419 106° East 450 518 19,000  Level FlightAware ADS-B
07:24PM 40.8535 -74.2088 113° Southeast 448 516 19,000  Level FlightAware ADS-B
07:24PM 40.8456 -74.1900 119° Southeast 447 514 19,000  Level FlightAware ADS-B
07:24PM 40.8382 -74.1752 123° Southeast 446 513 19,000 -300 Level FlightAware ADS-B
07:24PM 40.8207 -74.1473 130° Southeast 442 509 18,900 -900 Descending FlightAware ADS-B
07:24PM 40.8091 -74.1315 134° Southeast 440 506 18,700 -1,440 Descending FlightAware ADS-B
07:25PM 40.7780 -74.0906 135° Southeast 429 494 18,200 -1,680 Descending FlightAware ADS-B
07:25PM 40.7344 -74.0335 135° Southeast 414 476 17,200 -2,040 Descending FlightAware ADS-B
07:25PM 40.7162 -74.0097 135° Southeast 417 480 16,700 -2,160 Descending FlightAware ADS-B
07:26PM 40.6924 -73.9785 135° Southeast 404 465 16,100 -1,260 Descending FlightAware ADS-B
07:26PM 40.6513 -73.9252 135° Southeast 402 463 15,700 -780 Descending FlightAware ADS-B
07:27PM 40.6104 -73.8729 136° Southeast 396 456 15,300 -1,200 Descending FlightAware ADS-B
07:27PM 40.5702 -73.8215 136° Southeast 381 438 14,500 -1,800 Descending FlightAware ADS-B
07:28PM 40.5326 -73.7732 136° Southeast 373 429 13,500 -2,100 Descending FlightAware ADS-B
07:28PM 40.4952 -73.7256 136° Southeast 368 423 12,400 -1,920 Descending FlightAware ADS-B
07:29PM 40.4552 -73.6752 136° Southeast 356 410 11,500 -1,440 Descending FlightAware ADS-B
07:29PM 40.4393 -73.6542 135° Southeast 346 398 11,300 -720 Descending FlightAware ADS-B
07:29PM 40.4352 -73.6475 129° Southeast 343 395 11,300 -720 Level FlightAware ADS-B
07:29PM 40.4306 -73.6386 124° Southeast 340 391 11,200 -720 Descending FlightAware ADS-B
07:29PM 40.4278 -73.6322 120° Southeast 338 389 11,200 -720 Level FlightAware ADS-B
07:30PM 40.4198 -73.5925 105° East 328 377 10,900 -900 Descending FlightAware ADS-B
07:30PM 40.4202 -73.5797 88° East 325 374 10,800 -1,080 Descending FlightAware ADS-B
07:30PM 40.4243 -73.5586 76° East 321 369 10,600 -1,020 Descending FlightAware ADS-B
07:30PM 40.4291 -73.5463 63° Northeast 317 365 10,500 -840 Descending FlightAware ADS-B
07:30PM 40.4533 -73.5181 42° Northeast 306 352 10,200 -1,080 Descending FlightAware ADS-B
07:31PM 40.4756 -73.5027 28° Northeast 304 350 9,800 -1,380 Descending FlightAware ADS-B
07:31PM 40.4977 -73.4873 28° Northeast 304 350 9,400 -1,440 Descending FlightAware ADS-B
07:31PM 40.5219 -73.4706 28° Northeast 294 338 8,900 -1,860 Descending FlightAware ADS-B
07:31PM 40.5406 -73.4579 27° Northeast 289 333 8,300 -2,100 Descending FlightAware ADS-B
07:32PM 40.5596 -73.4449 27° Northeast 286 329 7,800 -1,920 Descending FlightAware ADS-B
07:32PM 40.6030 -73.4160 27° Northeast 269 310 6,600 -1,920 Descending FlightAware
07:33PM 40.6260 -73.4010 26° Northeast 261 300 5,900 -1,920 Descending FlightAware
07:33PM 40.6510 -73.3840 27° Northeast 249 287 5,200 -1,800 Descending FlightAware
07:33PM 40.6670 -73.3770 18° North 249 287 4,800 -1,560 Descending FlightAware
07:34PM 40.6960 -73.3920 339° North 255 293 4,100 -1,500 Descending FlightAware
07:34PM 40.7010 -73.4020 303° West 258 297 3,900 -900 Descending FlightAware
07:34PM 40.7110 -73.4320 294° West 260 299 3,700 -480 Descending FlightAware
07:34PM 40.7160 -73.4420 303° West 254 292 3,700  Level FlightAware
07:35PM 40.7310 -73.4630 313° West 236 272 3,700  Level FlightAware
07:35PM 40.7460 -73.4830 315° West 221 254 3,700 -240 Level FlightAware
07:35PM 40.7510 -73.4920 306° West 219 252 3,600 -900 Descending FlightAware
07:36PM 40.7600 -73.5150 297° West 218 251 3,300 -960 Descending FlightAware
07:36PM 40.7700 -73.5450 294° West 220 253 2,900 -840 Descending FlightAware
07:36PM 40.7790 -73.5700 295° West 223 257 2,700 -300 Descending FlightAware
07:37PM 40.7880 -73.5960 295° West 224 258 2,700  Level FlightAware
07:37PM 40.7900 -73.6080 282° West 223 257 2,700  Level FlightAware
07:37PM 40.7890 -73.6350 267° West 223 257 2,700  Level FlightAware
07:37PM 40.7870 -73.6460 257° West 222 255 2,700  Level FlightAware
07:38PM 40.7780 -73.6680 242° Southwest 222 255 2,700 -240 Level FlightAware
07:38PM 40.7720 -73.6750 221° Southwest 215 247 2,600 -1,080 Descending FlightAware
07:38PM 40.7550 -73.6900 214° Southwest 215 247 2,200 -1,080 Descending FlightAware
07:38PM 40.7380 -73.7020 208° Southwest 208 239 1,900 -1,080 Descending FlightAware
07:39PM 40.7210 -73.7140 208° Southwest 195 224 1,500 -1,140 Descending FlightAware
07:39PM 40.7030 -73.7260 207° Southwest 164 189 1,100 -960 Descending FlightAware
07:39PM 40.6910 -73.7350 210° Southwest 149 171 800 -780 Descending FlightAware
07:40PM 40.6790 -73.7430 207° Southwest 135 155 600 -780 Descending FlightAware
07:40PM 40.6680 -73.7500 206° Southwest 131 151 300 -720 Descending FlightAware
07:41PM 40.6550 -73.7600 210° Southwest 132 152 100 -540 Descending FlightAware
07:41PM 40.6450 -73.7670 208° Southwest 130 150 -300 Descending FlightAware
07:41PM 40.6350 -73.7760 214° Southwest 98 113  Level FlightAware